sensor_id;sensor_type;location;lat;lon;timestamp;pressure;altitude;pressure_sealevel;temperature;humidity
72798;BME280;61084;55.816;37.036;2022-09-09T00:07:14;100252.63;;;7.81;66.14
72798;BME280;61084;55.816;37.036;2022-09-09T00:12:31;100253.72;;;7.72;65.81
72798;BME280;61084;55.816;37.036;2022-09-09T00:15:19;100260.94;;;7.64;66.60
72798;BME280;61084;55.816;37.036;2022-09-09T00:26:03;100260.56;;;7.45;66.49
72798;BME280;61084;55.816;37.036;2022-09-09T00:28:33;100265.81;;;7.44;66.58
72798;BME280;61084;55.816;37.036;2022-09-09T00:31:20;100260.66;;;7.42;66.71
72798;BME280;61084;55.816;37.036;2022-09-09T00:33:49;100261.56;;;7.40;67.13
72798;BME280;61084;55.816;37.036;2022-09-09T00:36:18;100268.66;;;7.36;66.83
72798;BME280;61084;55.816;37.036;2022-09-09T00:38:52;100274.81;;;7.34;66.83
72798;BME280;61084;55.816;37.036;2022-09-09T00:41:50;100275.72;;;7.33;66.72
72798;BME280;61084;55.816;37.036;2022-09-09T00:50:00;100282.81;;;7.28;67.06
72798;BME280;61084;55.816;37.036;2022-09-09T00:55:32;100286.22;;;7.30;66.93
72798;BME280;61084;55.816;37.036;2022-09-09T00:58:01;100291.44;;;7.30;66.96
72798;BME280;61084;55.816;37.036;2022-09-09T01:00:29;100289.72;;;7.29;66.87
72798;BME280;61084;55.816;37.036;2022-09-09T01:06:16;100295.16;;;7.21;67.24
72798;BME280;61084;55.816;37.036;2022-09-09T01:17:26;100291.09;;;7.10;67.21
72798;BME280;61084;55.816;37.036;2022-09-09T01:20:11;100299.84;;;7.07;67.20
72798;BME280;61084;55.816;37.036;2022-09-09T01:23:03;100298.09;;;7.08;67.41
72798;BME280;61084;55.816;37.036;2022-09-09T01:28:26;100306.75;;;7.10;67.58
72798;BME280;61084;55.816;37.036;2022-09-09T01:30:57;100310.28;;;7.07;67.68
72798;BME280;61084;55.816;37.036;2022-09-09T01:33:26;100309.47;;;7.05;67.39
72798;BME280;61084;55.816;37.036;2022-09-09T01:38:29;100309.47;;;7.05;67.49
72798;BME280;61084;55.816;37.036;2022-09-09T01:40:57;100314.69;;;7.05;67.60
72798;BME280;61084;55.816;37.036;2022-09-09T01:43:32;100306.97;;;7.01;67.55
72798;BME280;61084;55.816;37.036;2022-09-09T01:46:01;100318.25;;;7.01;67.25
72798;BME280;61084;55.816;37.036;2022-09-09T01:48:30;100316.59;;;6.99;67.79
72798;BME280;61084;55.816;37.036;2022-09-09T01:51:02;100323.53;;;7.00;67.46
72798;BME280;61084;55.816;37.036;2022-09-09T01:53:29;100320.00;;;7.01;67.51
72798;BME280;61084;55.816;37.036;2022-09-09T01:58:32;100318.25;;;7.01;67.58
72798;BME280;61084;55.816;37.036;2022-09-09T02:03:59;100329.63;;;7.00;67.56
72798;BME280;61084;55.816;37.036;2022-09-09T02:06:38;100328.75;;;7.00;68.09
72798;BME280;61084;55.816;37.036;2022-09-09T02:09:19;100333.97;;;6.98;67.86
72798;BME280;61084;55.816;37.036;2022-09-09T02:11:47;100328.00;;;6.95;67.47
72798;BME280;61084;55.816;37.036;2022-09-09T02:14:29;100329.72;;;6.94;67.92
72798;BME280;61084;55.816;37.036;2022-09-09T02:17:10;100334.13;;;6.94;67.75
72798;BME280;61084;55.816;37.036;2022-09-09T02:20:12;100333.31;;;6.90;67.40
72798;BME280;61084;55.816;37.036;2022-09-09T02:22:59;100336.94;;;6.84;67.26
72798;BME280;61084;55.816;37.036;2022-09-09T02:25:28;100346.56;;;6.82;67.79
72798;BME280;61084;55.816;37.036;2022-09-09T02:28:03;100344.88;;;6.80;67.70
72798;BME280;61084;55.816;37.036;2022-09-09T02:30:32;100347.56;;;6.75;67.28
72798;BME280;61084;55.816;37.036;2022-09-09T02:33:02;100348.56;;;6.70;67.70
72798;BME280;61084;55.816;37.036;2022-09-09T02:35:45;100349.50;;;6.66;67.46
72798;BME280;61084;55.816;37.036;2022-09-09T02:38:16;100356.50;;;6.64;67.81
72798;BME280;61084;55.816;37.036;2022-09-09T02:40:53;100349.59;;;6.61;67.62
72798;BME280;61084;55.816;37.036;2022-09-09T02:43:19;100355.78;;;6.59;67.79
72798;BME280;61084;55.816;37.036;2022-09-09T02:46:03;100356.69;;;6.56;67.80
72798;BME280;61084;55.816;37.036;2022-09-09T02:56:52;100369.97;;;6.46;67.60
72798;BME280;61084;55.816;37.036;2022-09-09T02:59:30;100363.03;;;6.45;67.27
72798;BME280;61084;55.816;37.036;2022-09-09T03:01:56;100369.16;;;6.42;67.91
72798;BME280;61084;55.816;37.036;2022-09-09T03:04:23;100372.69;;;6.40;67.93
72798;BME280;61084;55.816;37.036;2022-09-09T03:06:51;100367.53;;;6.37;67.69
72798;BME280;61084;55.816;37.036;2022-09-09T03:09:19;100371.03;;;6.36;67.68
72798;BME280;61084;55.816;37.036;2022-09-09T03:11:45;100373.72;;;6.33;67.72
72798;BME280;61084;55.816;37.036;2022-09-09T03:14:14;100379.81;;;6.32;68.15
72798;BME280;61084;55.816;37.036;2022-09-09T03:16:40;100383.31;;;6.29;68.23
72798;BME280;61084;55.816;37.036;2022-09-09T03:19:07;100386.84;;;6.27;68.32
72798;BME280;61084;55.816;37.036;2022-09-09T03:21:33;100392.97;;;6.26;67.99
72798;BME280;61084;55.816;37.036;2022-09-09T03:24:00;100389.50;;;6.25;67.81
72798;BME280;61084;55.816;37.036;2022-09-09T03:26:25;100389.44;;;6.27;67.95
72798;BME280;61084;55.816;37.036;2022-09-09T03:28:51;100391.19;;;6.28;68.33
72798;BME280;61084;55.816;37.036;2022-09-09T03:31:20;100392.88;;;6.29;68.28
72798;BME280;61084;55.816;37.036;2022-09-09T03:33:46;100391.09;;;6.31;68.16
72798;BME280;61084;55.816;37.036;2022-09-09T03:36:15;100395.50;;;6.30;67.73
72798;BME280;61084;55.816;37.036;2022-09-09T03:38:41;100398.09;;;6.30;68.46
72798;BME280;61084;55.816;37.036;2022-09-09T03:41:08;100402.41;;;6.31;68.70
72798;BME280;61084;55.816;37.036;2022-09-09T03:43:34;100392.06;;;6.27;68.95
72798;BME280;61084;55.816;37.036;2022-09-09T03:46:00;100404.28;;;6.25;68.91
72798;BME280;61084;55.816;37.036;2022-09-09T03:48:28;100404.28;;;6.25;68.68
72798;BME280;61084;55.816;37.036;2022-09-09T03:50:54;100398.09;;;6.30;68.71
72798;BME280;61084;55.816;37.036;2022-09-09T03:53:23;100399.72;;;6.36;68.81
72798;BME280;61084;55.816;37.036;2022-09-09T03:55:53;100402.22;;;6.40;68.49
72798;BME280;61084;55.816;37.036;2022-09-09T03:58:22;100396.00;;;6.47;69.25
72798;BME280;61084;55.816;37.036;2022-09-09T04:00:58;100407.16;;;6.54;68.53
72798;BME280;61084;55.816;37.036;2022-09-09T04:03:25;100409.69;;;6.58;68.52
72798;BME280;61084;55.816;37.036;2022-09-09T04:05:52;100404.28;;;6.66;68.27
72798;BME280;61084;55.816;37.036;2022-09-09T04:08:20;100404.19;;;6.72;68.15
72798;BME280;61084;55.816;37.036;2022-09-09T04:10:50;100408.41;;;6.77;68.14
72798;BME280;61084;55.816;37.036;2022-09-09T04:13:17;100410.00;;;6.84;68.33
72798;BME280;61084;55.816;37.036;2022-09-09T04:15:50;100414.22;;;6.90;68.03
72798;BME280;61084;55.816;37.036;2022-09-09T04:18:17;100407.16;;;6.95;68.23
72798;BME280;61084;55.816;37.036;2022-09-09T04:20:43;100407.00;;;7.01;68.08
72798;BME280;61084;55.816;37.036;2022-09-09T04:23:11;100409.47;;;7.07;68.26
72798;BME280;61084;55.816;37.036;2022-09-09T04:25:37;100418.00;;;7.15;68.19
72798;BME280;61084;55.816;37.036;2022-09-09T04:28:03;100422.16;;;7.24;67.68
72798;BME280;61084;55.816;37.036;2022-09-09T04:30:30;100424.53;;;7.34;67.90
72798;BME280;61084;55.816;37.036;2022-09-09T04:32:56;100422.53;;;7.45;67.66
72798;BME280;61084;55.816;37.036;2022-09-09T04:35:22;100422.31;;;7.53;67.76
72798;BME280;61084;55.816;37.036;2022-09-09T04:37:48;100423.81;;;7.63;67.77
72798;BME280;61084;55.816;37.036;2022-09-09T04:40:16;100414.03;;;7.71;67.18
72798;BME280;61084;55.816;37.036;2022-09-09T04:42:42;100421.59;;;7.82;67.03
72798;BME280;61084;55.816;37.036;2022-09-09T04:45:11;100423.97;;;7.91;66.84
72798;BME280;61084;55.816;37.036;2022-09-09T04:47:41;100421.09;;;8.01;66.73
72798;BME280;61084;55.816;37.036;2022-09-09T04:50:08;100426.09;;;8.10;66.58
72798;BME280;61084;55.816;37.036;2022-09-09T04:52:35;100430.13;;;8.22;66.57
72798;BME280;61084;55.816;37.036;2022-09-09T04:55:02;100433.44;;;8.30;66.39
72798;BME280;61084;55.816;37.036;2022-09-09T04:57:28;100430.56;;;8.39;66.18
72798;BME280;61084;55.816;37.036;2022-09-09T04:59:54;100435.53;;;8.48;66.03
72798;BME280;61084;55.816;37.036;2022-09-09T05:02:20;100433.63;;;8.55;65.85
72798;BME280;61084;55.816;37.036;2022-09-09T05:04:46;100431.50;;;8.67;65.76
72798;BME280;61084;55.816;37.036;2022-09-09T05:07:12;100439.09;;;8.76;65.79
72798;BME280;61084;55.816;37.036;2022-09-09T05:09:40;100435.34;;;8.85;65.60
72798;BME280;61084;55.816;37.036;2022-09-09T05:12:06;100441.94;;;8.98;65.52
72798;BME280;61084;55.816;37.036;2022-09-09T05:14:35;100444.22;;;9.08;65.13
72798;BME280;61084;55.816;37.036;2022-09-09T05:17:03;100448.34;;;9.17;65.01
72798;BME280;61084;55.816;37.036;2022-09-09T05:19:29;100447.13;;;9.27;65.03
72798;BME280;61084;55.816;37.036;2022-09-09T05:21:56;100448.81;;;9.30;64.34
72798;BME280;61084;55.816;37.036;2022-09-09T05:24:29;100445.09;;;9.37;64.08
72798;BME280;61084;55.816;37.036;2022-09-09T05:26:59;100450.19;;;9.41;64.16
72798;BME280;61084;55.816;37.036;2022-09-09T05:29:28;100455.19;;;9.49;63.99
72798;BME280;61084;55.816;37.036;2022-09-09T05:31:55;100449.84;;;9.52;63.70
72798;BME280;61084;55.816;37.036;2022-09-09T05:34:21;100450.47;;;9.60;63.41
72798;BME280;61084;55.816;37.036;2022-09-09T05:36:49;100456.44;;;9.65;63.11
72798;BME280;61084;55.816;37.036;2022-09-09T05:39:15;100454.31;;;9.76;63.20
72798;BME280;61084;55.816;37.036;2022-09-09T05:41:41;100457.38;;;9.88;63.10
72798;BME280;61084;55.816;37.036;2022-09-09T05:44:08;100459.50;;;10.04;63.33
72798;BME280;61084;55.816;37.036;2022-09-09T05:46:37;100453.03;;;10.14;62.69
72798;BME280;61084;55.816;37.036;2022-09-09T05:49:03;100453.59;;;10.23;62.53
72798;BME280;61084;55.816;37.036;2022-09-09T05:51:32;100456.66;;;10.36;62.94
72798;BME280;61084;55.816;37.036;2022-09-09T05:54:03;100460.56;;;10.49;62.67
72798;BME280;61084;55.816;37.036;2022-09-09T05:56:32;100452.28;;;10.59;61.96
72798;BME280;61084;55.816;37.036;2022-09-09T05:58:59;100464.19;;;10.70;62.39
72798;BME280;61084;55.816;37.036;2022-09-09T06:01:31;100458.59;;;10.79;61.84
72798;BME280;61084;55.816;37.036;2022-09-09T06:03:59;100462.47;;;10.92;61.68
72798;BME280;61084;55.816;37.036;2022-09-09T06:06:35;100462.91;;;11.03;60.83
72798;BME280;61084;55.816;37.036;2022-09-09T06:09:06;100475.63;;;11.15;61.02
72798;BME280;61084;55.816;37.036;2022-09-09T06:11:37;100468.19;;;11.26;60.48
72798;BME280;61084;55.816;37.036;2022-09-09T06:14:05;100467.81;;;11.35;60.58
72798;BME280;61084;55.816;37.036;2022-09-09T06:16:32;100472.84;;;11.41;59.07
72798;BME280;61084;55.816;37.036;2022-09-09T06:18:59;100475.31;;;11.44;59.70
72798;BME280;61084;55.816;37.036;2022-09-09T06:21:31;100482.06;;;11.51;59.94
72798;BME280;61084;55.816;37.036;2022-09-09T06:24:04;100475.47;;;11.63;59.79
72798;BME280;61084;55.816;37.036;2022-09-09T06:26:38;100480.31;;;11.73;59.02
72798;BME280;61084;55.816;37.036;2022-09-09T06:29:09;100474.81;;;11.79;58.74
72798;BME280;61084;55.816;37.036;2022-09-09T06:31:36;100483.06;;;11.92;59.10
72798;BME280;61084;55.816;37.036;2022-09-09T06:34:22;100479.16;;;12.02;59.31
72798;BME280;61084;55.816;37.036;2022-09-09T06:36:52;100478.78;;;12.11;58.21
72798;BME280;61084;55.816;37.036;2022-09-09T06:39:17;100481.25;;;12.14;58.32
72798;BME280;61084;55.816;37.036;2022-09-09T06:41:44;100474.34;;;12.11;57.17
72798;BME280;61084;55.816;37.036;2022-09-09T06:44:33;100487.31;;;12.16;57.63
72798;BME280;61084;55.816;37.036;2022-09-09T06:47:00;100491.47;;;12.22;57.45
72798;BME280;61084;55.816;37.036;2022-09-09T06:49:26;100488.13;;;12.38;57.83
72798;BME280;61084;55.816;37.036;2022-09-09T06:51:52;100494.91;;;12.44;58.42
72798;BME280;61084;55.816;37.036;2022-09-09T06:54:18;100489.69;;;12.42;56.92
72798;BME280;61084;55.816;37.036;2022-09-09T06:56:45;100501.22;;;12.40;57.31
72798;BME280;61084;55.816;37.036;2022-09-09T06:59:19;100499.69;;;12.34;57.40
72798;BME280;61084;55.816;37.036;2022-09-09T07:01:46;100491.25;;;12.46;57.30
72798;BME280;61084;55.816;37.036;2022-09-09T07:04:14;100493.19;;;12.63;57.44
72798;BME280;61084;55.816;37.036;2022-09-09T07:06:45;100502.97;;;12.59;57.64
72798;BME280;61084;55.816;37.036;2022-09-09T07:09:21;100498.19;;;12.49;56.41
72798;BME280;61084;55.816;37.036;2022-09-09T07:11:51;100499.38;;;12.42;56.88
72798;BME280;61084;55.816;37.036;2022-09-09T07:14:21;100510.03;;;12.39;55.51
72798;BME280;61084;55.816;37.036;2022-09-09T07:16:53;100507.88;;;12.28;56.56
72798;BME280;61084;55.816;37.036;2022-09-09T07:19:19;100516.75;;;12.26;56.68
72798;BME280;61084;55.816;37.036;2022-09-09T07:21:49;100516.81;;;12.24;56.83
72798;BME280;61084;55.816;37.036;2022-09-09T07:24:18;100517.59;;;12.26;56.28
72798;BME280;61084;55.816;37.036;2022-09-09T07:26:45;100518.31;;;12.30;55.82
72798;BME280;61084;55.816;37.036;2022-09-09T07:29:11;100524.59;;;12.47;56.91
72798;BME280;61084;55.816;37.036;2022-09-09T07:31:41;100512.72;;;12.57;57.05
72798;BME280;61084;55.816;37.036;2022-09-09T07:34:10;100524.31;;;12.53;55.83
72798;BME280;61084;55.816;37.036;2022-09-09T07:36:38;100527.94;;;12.51;55.25
72798;BME280;61084;55.816;37.036;2022-09-09T07:39:09;100526.44;;;12.45;55.60
72798;BME280;61084;55.816;37.036;2022-09-09T07:41:42;100539.59;;;12.45;55.67
72798;BME280;61084;55.816;37.036;2022-09-09T07:44:14;100544.69;;;12.50;55.93
72798;BME280;61084;55.816;37.036;2022-09-09T07:46:41;100545.34;;;12.55;56.10
72798;BME280;61084;55.816;37.036;2022-09-09T07:49:10;100536.44;;;12.57;55.70
72798;BME280;61084;55.816;37.036;2022-09-09T07:51:42;100545.34;;;12.55;55.16
72798;BME280;61084;55.816;37.036;2022-09-09T07:54:11;100552.38;;;12.54;54.46
72798;BME280;61084;55.816;37.036;2022-09-09T07:56:41;100550.34;;;12.61;55.31
72798;BME280;61084;55.816;37.036;2022-09-09T07:59:08;100544.16;;;12.82;55.01
72798;BME280;61084;55.816;37.036;2022-09-09T08:01:38;100538.72;;;13.05;53.77
72798;BME280;61084;55.816;37.036;2022-09-09T08:04:10;100545.63;;;13.28;54.08
72798;BME280;61084;55.816;37.036;2022-09-09T08:06:39;100549.84;;;13.50;54.18
72798;BME280;61084;55.816;37.036;2022-09-09T08:09:08;100554.06;;;13.54;53.63
72798;BME280;61084;55.816;37.036;2022-09-09T08:11:36;100552.53;;;13.49;54.23
72798;BME280;61084;55.816;37.036;2022-09-09T08:14:03;100549.31;;;13.42;53.69
72798;BME280;61084;55.816;37.036;2022-09-09T08:16:32;100555.59;;;13.40;53.93
72798;BME280;61084;55.816;37.036;2022-09-09T08:18:59;100551.38;;;13.36;53.31
72798;BME280;61084;55.816;37.036;2022-09-09T08:21:27;100552.53;;;13.30;53.86
72798;BME280;61084;55.816;37.036;2022-09-09T08:23:56;100547.25;;;13.30;53.48
72798;BME280;61084;55.816;37.036;2022-09-09T08:28:56;100555.19;;;13.30;53.36
72798;BME280;61084;55.816;37.036;2022-09-09T08:31:26;100554.97;;;13.35;53.09
72798;BME280;61084;55.816;37.036;2022-09-09T08:33:55;100560.41;;;13.50;53.03
72798;BME280;61084;55.816;37.036;2022-09-09T08:36:24;100550.19;;;13.61;52.74
72798;BME280;61084;55.816;37.036;2022-09-09T08:38:56;100542.09;;;13.83;52.93
72798;BME280;61084;55.816;37.036;2022-09-09T08:57:40;100563.03;;;13.69;51.81
72798;BME280;61084;55.816;37.036;2022-09-09T09:00:09;100564.75;;;13.70;52.26
72798;BME280;61084;55.816;37.036;2022-09-09T09:07:59;100576.13;;;13.89;51.71
72798;BME280;61084;55.816;37.036;2022-09-09T09:10:46;100573.31;;;14.11;51.77
72798;BME280;61084;55.816;37.036;2022-09-09T09:13:20;100569.47;;;14.18;51.71
72798;BME280;61084;55.816;37.036;2022-09-09T09:15:57;100574.78;;;14.16;51.53
72798;BME280;61084;55.816;37.036;2022-09-09T09:18:26;100579.53;;;14.10;51.16
72798;BME280;61084;55.816;37.036;2022-09-09T09:23:23;100567.06;;;13.95;51.46
72798;BME280;61084;55.816;37.036;2022-09-09T09:25:58;100563.56;;;13.94;51.45
72798;BME280;61084;55.816;37.036;2022-09-09T09:28:31;100563.72;;;13.91;51.43
72798;BME280;61084;55.816;37.036;2022-09-09T09:31:10;100570.69;;;13.92;50.47
72798;BME280;61084;55.816;37.036;2022-09-09T09:33:54;100562.78;;;13.92;50.84
72798;BME280;61084;55.816;37.036;2022-09-09T09:36:43;100563.63;;;13.93;51.85
72798;BME280;61084;55.816;37.036;2022-09-09T09:39:34;100561.66;;;13.98;50.36
72798;BME280;61084;55.816;37.036;2022-09-09T09:42:12;100562.44;;;14.00;51.56
72798;BME280;61084;55.816;37.036;2022-09-09T09:44:41;100567.25;;;14.09;50.00
72798;BME280;61084;55.816;37.036;2022-09-09T09:47:20;100562.38;;;14.18;49.69
72798;BME280;61084;55.816;37.036;2022-09-09T09:49:56;100567.16;;;14.29;50.79
72798;BME280;61084;55.816;37.036;2022-09-09T09:52:28;100564.84;;;14.40;51.18
72798;BME280;61084;55.816;37.036;2022-09-09T09:54:56;100570.53;;;14.50;50.15
72798;BME280;61084;55.816;37.036;2022-09-09T09:57:26;100574.88;;;14.51;50.85
72798;BME280;61084;55.816;37.036;2022-09-09T10:02:42;100567.19;;;14.46;50.79
72798;BME280;61084;55.816;37.036;2022-09-09T10:07:45;100569.75;;;14.48;50.78
72798;BME280;61084;55.816;37.036;2022-09-09T10:10:40;100571.38;;;14.50;48.28
72798;BME280;61084;55.816;37.036;2022-09-09T10:13:18;100567.44;;;14.59;50.45
72798;BME280;61084;55.816;37.036;2022-09-09T10:15:56;100568.50;;;14.72;51.13
72798;BME280;61084;55.816;37.036;2022-09-09T10:24:15;100569.13;;;15.27;49.80
72798;BME280;61084;55.816;37.036;2022-09-09T10:42:56;100584.69;;;14.83;49.83
72798;BME280;61084;55.816;37.036;2022-09-09T10:45:50;100590.88;;;14.82;48.99
72798;BME280;61084;55.816;37.036;2022-09-09T10:59:56;100576.97;;;14.78;48.83
72798;BME280;61084;55.816;37.036;2022-09-09T11:02:33;100586.69;;;14.78;48.65
72798;BME280;61084;55.816;37.036;2022-09-09T11:07:41;100588.69;;;14.90;48.64
72798;BME280;61084;55.816;37.036;2022-09-09T11:10:40;100580.91;;;15.04;48.41
72798;BME280;61084;55.816;37.036;2022-09-09T11:13:14;100577.72;;;15.15;47.36
72798;BME280;61084;55.816;37.036;2022-09-09T11:15:44;100571.88;;;15.41;48.22
72798;BME280;61084;55.816;37.036;2022-09-09T11:18:16;100570.00;;;15.43;48.57
72798;BME280;61084;55.816;37.036;2022-09-09T11:20:47;100570.44;;;15.35;46.72
72798;BME280;61084;55.816;37.036;2022-09-09T11:23:42;100572.03;;;15.38;46.54
72798;BME280;61084;55.816;37.036;2022-09-09T11:26:10;100579.13;;;15.54;47.47
72798;BME280;61084;55.816;37.036;2022-09-09T11:36:56;100575.34;;;16.21;45.22
72798;BME280;61084;55.816;37.036;2022-09-09T11:42:36;100571.16;;;16.17;45.31
72798;BME280;61084;55.816;37.036;2022-09-09T11:45:10;100565.97;;;16.00;44.85
72798;BME280;61084;55.816;37.036;2022-09-09T11:47:37;100563.31;;;16.00;45.85
72798;BME280;61084;55.816;37.036;2022-09-09T11:50:09;100562.81;;;16.09;45.69
72798;BME280;61084;55.816;37.036;2022-09-09T11:52:44;100564.59;;;16.24;46.64
72798;BME280;61084;55.816;37.036;2022-09-09T11:58:05;100565.19;;;16.13;44.25
72798;BME280;61084;55.816;37.036;2022-09-09T12:00:39;100567.59;;;15.87;45.29
72798;BME280;61084;55.816;37.036;2022-09-09T12:05:55;100559.72;;;16.16;44.40
72798;BME280;61084;55.816;37.036;2022-09-09T12:08:26;100563.84;;;16.36;44.06
72798;BME280;61084;55.816;37.036;2022-09-09T12:10:55;100574.13;;;16.42;44.54
72798;BME280;61084;55.816;37.036;2022-09-09T12:13:24;100572.31;;;16.58;45.05
72798;BME280;61084;55.816;37.036;2022-09-09T12:15:53;100561.75;;;16.72;44.34
72798;BME280;61084;55.816;37.036;2022-09-09T12:18:35;100570.75;;;16.84;44.18
72798;BME280;61084;55.816;37.036;2022-09-09T12:23:52;100561.53;;;17.33;43.65
72798;BME280;61084;55.816;37.036;2022-09-09T12:26:54;100561.31;;;17.64;44.27
72798;BME280;61084;55.816;37.036;2022-09-09T12:32:13;100568.53;;;17.48;43.05
72798;BME280;61084;55.816;37.036;2022-09-09T12:34:51;100566.75;;;17.34;43.55
72798;BME280;61084;55.816;37.036;2022-09-09T12:39:55;100566.25;;;17.14;43.64
72798;BME280;61084;55.816;37.036;2022-09-09T12:42:22;100570.25;;;17.07;42.48
72798;BME280;61084;55.816;37.036;2022-09-09T12:47:19;100567.41;;;17.24;42.81
72798;BME280;61084;55.816;37.036;2022-09-09T12:49:47;100562.34;;;17.33;43.35
72798;BME280;61084;55.816;37.036;2022-09-09T12:52:22;100560.47;;;17.50;42.43
72798;BME280;61084;55.816;37.036;2022-09-09T12:54:50;100559.06;;;17.58;41.04
72798;BME280;61084;55.816;37.036;2022-09-09T12:57:17;100556.13;;;17.63;42.79
72798;BME280;61084;55.816;37.036;2022-09-09T12:59:44;100564.84;;;17.65;42.62
72798;BME280;61084;55.816;37.036;2022-09-09T13:02:23;100561.78;;;17.71;41.64
72798;BME280;61084;55.816;37.036;2022-09-09T13:04:50;100553.34;;;17.78;42.02
72798;BME280;61084;55.816;37.036;2022-09-09T13:07:17;100557.22;;;17.87;40.97
72798;BME280;61084;55.816;37.036;2022-09-09T13:09:44;100548.19;;;17.89;41.53
72798;BME280;61084;55.816;37.036;2022-09-09T13:12:18;100550.88;;;17.89;41.71
72798;BME280;61084;55.816;37.036;2022-09-09T13:14:47;100550.69;;;17.78;40.79
72798;BME280;61084;55.816;37.036;2022-09-09T13:17:20;100553.06;;;17.69;40.19
72798;BME280;61084;55.816;37.036;2022-09-09T13:19:47;100558.38;;;17.69;41.64
72798;BME280;61084;55.816;37.036;2022-09-09T13:22:29;100557.34;;;17.71;40.52
72798;BME280;61084;55.816;37.036;2022-09-09T13:25:04;100561.16;;;17.67;38.72
72798;BME280;61084;55.816;37.036;2022-09-09T13:27:36;100562.94;;;17.67;41.28
72798;BME280;61084;55.816;37.036;2022-09-09T13:30:28;100561.63;;;17.46;39.44
72798;BME280;61084;55.816;37.036;2022-09-09T13:35:32;100563.03;;;17.23;40.69
72798;BME280;61084;55.816;37.036;2022-09-09T13:38:06;100562.16;;;17.22;40.98
72798;BME280;61084;55.816;37.036;2022-09-09T13:40:33;100556.41;;;17.16;42.02
72798;BME280;61084;55.816;37.036;2022-09-09T13:43:00;100557.81;;;17.21;41.45
72798;BME280;61084;55.816;37.036;2022-09-09T13:45:27;100549.75;;;17.23;40.67
72798;BME280;61084;55.816;37.036;2022-09-09T13:47:54;100549.75;;;17.23;40.99
72798;BME280;61084;55.816;37.036;2022-09-09T13:50:26;100556.41;;;17.30;41.39
72798;BME280;61084;55.816;37.036;2022-09-09T13:52:59;100550.22;;;17.29;40.86
72798;BME280;61084;55.816;37.036;2022-09-09T13:55:27;100545.88;;;17.28;39.18
72798;BME280;61084;55.816;37.036;2022-09-09T13:57:55;100542.47;;;17.26;40.90
72798;BME280;61084;55.816;37.036;2022-09-09T14:00:22;100544.06;;;17.29;40.44
72798;BME280;61084;55.816;37.036;2022-09-09T14:02:50;100534.78;;;17.36;41.64
72798;BME280;61084;55.816;37.036;2022-09-09T14:05:17;100543.41;;;17.40;41.89
72798;BME280;61084;55.816;37.036;2022-09-09T14:07:44;100539.06;;;17.39;41.36
72798;BME280;61084;55.816;37.036;2022-09-09T14:10:10;100541.34;;;17.30;41.10
72798;BME280;61084;55.816;37.036;2022-09-09T14:12:37;100544.56;;;17.21;41.26
72798;BME280;61084;55.816;37.036;2022-09-09T14:15:04;100539.63;;;17.15;41.18
72798;BME280;61084;55.816;37.036;2022-09-09T14:17:30;100540.84;;;17.10;41.36
72798;BME280;61084;55.816;37.036;2022-09-09T14:19:57;100544.47;;;17.09;41.68
72798;BME280;61084;55.816;37.036;2022-09-09T14:22:23;100539.72;;;17.14;41.95
72798;BME280;61084;55.816;37.036;2022-09-09T14:24:49;100545.31;;;17.09;40.40
72798;BME280;61084;55.816;37.036;2022-09-09T14:27:16;100545.50;;;17.06;41.44
72798;BME280;61084;55.816;37.036;2022-09-09T14:29:43;100542.09;;;17.04;41.70
72798;BME280;61084;55.816;37.036;2022-09-09T14:32:10;100533.75;;;16.96;41.28
72798;BME280;61084;55.816;37.036;2022-09-09T14:34:36;100536.59;;;16.93;40.82
72798;BME280;61084;55.816;37.036;2022-09-09T14:37:02;100538.66;;;16.88;41.45
72798;BME280;61084;55.816;37.036;2022-09-09T14:39:28;100535.44;;;16.83;41.93
72798;BME280;61084;55.816;37.036;2022-09-09T14:41:53;100536.75;;;16.76;42.24
72798;BME280;61084;55.816;37.036;2022-09-09T14:44:19;100538.91;;;16.70;42.34
72798;BME280;61084;55.816;37.036;2022-09-09T14:46:45;100536.06;;;16.58;41.96
72798;BME280;61084;55.816;37.036;2022-09-09T14:49:11;100536.72;;;16.46;42.01
72798;BME280;61084;55.816;37.036;2022-09-09T14:51:38;100534.72;;;16.36;42.31
72798;BME280;61084;55.816;37.036;2022-09-09T14:54:04;100538.75;;;16.27;42.75
72798;BME280;61084;55.816;37.036;2022-09-09T14:56:32;100535.78;;;16.18;42.90
72798;BME280;61084;55.816;37.036;2022-09-09T14:59:00;100541.34;;;16.13;43.00
72798;BME280;61084;55.816;37.036;2022-09-09T15:01:27;100543.56;;;16.05;42.65
72798;BME280;61084;55.816;37.036;2022-09-09T15:03:58;100534.53;;;15.94;42.56
72798;BME280;61084;55.816;37.036;2022-09-09T15:06:26;100531.56;;;15.84;42.76
72798;BME280;61084;55.816;37.036;2022-09-09T15:08:53;100536.53;;;15.74;42.47
72798;BME280;61084;55.816;37.036;2022-09-09T15:11:20;100530.88;;;15.65;43.05
72798;BME280;61084;55.816;37.036;2022-09-09T15:13:46;100543.75;;;15.55;42.69
72798;BME280;61084;55.816;37.036;2022-09-09T15:16:16;100539.81;;;15.47;43.07
72798;BME280;61084;55.816;37.036;2022-09-09T15:18:44;100536.88;;;15.36;43.33
72798;BME280;61084;55.816;37.036;2022-09-09T15:21:18;100533.94;;;15.25;44.07
72798;BME280;61084;55.816;37.036;2022-09-09T15:23:45;100536.16;;;15.17;44.17
72798;BME280;61084;55.816;37.036;2022-09-09T15:26:13;100547.31;;;15.06;44.59
72798;BME280;61084;55.816;37.036;2022-09-09T15:28:44;100542.69;;;14.94;44.91
72798;BME280;61084;55.816;37.036;2022-09-09T15:31:14;100547.66;;;14.83;44.95
72798;BME280;61084;55.816;37.036;2022-09-09T15:34:03;100543.19;;;14.68;44.93
72798;BME280;61084;55.816;37.036;2022-09-09T15:36:31;100545.56;;;14.55;45.46